createdAt,value
2022-10-02T00:01:51.716Z,2.65
2022-10-02T00:04:44.901Z,2.75
2022-10-02T00:07:39.238Z,2.33
2022-10-02T00:10:33.028Z,2.60
2022-10-02T00:13:27.702Z,2.63
2022-10-02T00:16:27.041Z,2.92
2022-10-02T00:19:18.840Z,2.90
2022-10-02T00:22:21.235Z,2.40
2022-10-02T00:25:18.991Z,2.83
2022-10-02T00:28:15.597Z,2.53
2022-10-02T00:31:22.794Z,2.60
2022-10-02T00:34:23.185Z,2.30
2022-10-02T00:37:20.936Z,2.53
2022-10-02T00:40:36.876Z,2.10
2022-10-02T00:43:35.195Z,1.80
2022-10-02T00:46:41.543Z,2.20
2022-10-02T00:49:59.119Z,2.25
2022-10-02T00:52:58.755Z,2.00
2022-10-02T00:56:05.585Z,2.13
2022-10-02T00:59:04.767Z,1.98
2022-10-02T01:02:00.216Z,2.00
2022-10-02T01:04:48.818Z,2.20
2022-10-02T01:07:41.143Z,1.90
2022-10-02T01:10:30.993Z,1.92
2022-10-02T01:13:19.734Z,1.80
2022-10-02T01:16:13.024Z,1.63
2022-10-02T01:19:03.138Z,2.03
2022-10-02T01:21:54.902Z,1.73
2022-10-02T01:27:39.578Z,1.40
2022-10-02T01:30:28.848Z,1.50
2022-10-02T01:33:17.372Z,1.50
2022-10-02T01:36:06.494Z,1.80
2022-10-02T01:38:56.204Z,1.40
2022-10-02T01:41:46.798Z,1.42
2022-10-02T01:44:35.117Z,1.50
2022-10-02T01:47:31.399Z,1.35
2022-10-02T01:50:26.548Z,1.48
2022-10-02T01:53:21.490Z,1.10
2022-10-02T01:56:17.698Z,1.20
2022-10-02T01:59:19.245Z,1.20
2022-10-02T02:02:14.611Z,1.30
2022-10-02T02:05:10.154Z,1.20
2022-10-02T02:08:07.997Z,1.10
2022-10-02T02:11:05.979Z,1.15
2022-10-02T02:14:00.814Z,1.40
2022-10-02T02:16:54.548Z,0.85
2022-10-02T02:19:48.595Z,1.00
2022-10-02T02:22:42.351Z,0.80
2022-10-02T02:25:35.052Z,1.00
2022-10-02T02:28:26.551Z,1.00
2022-10-02T02:34:11.111Z,0.90
2022-10-02T02:37:06.306Z,0.90
2022-10-02T02:39:58.738Z,1.00
2022-10-02T02:42:52.506Z,0.90
2022-10-02T02:45:46.976Z,0.80
2022-10-02T02:48:40.092Z,0.90
2022-10-02T02:51:36.162Z,0.80
2022-10-02T02:54:29.079Z,0.75
2022-10-02T02:57:19.459Z,0.90
2022-10-02T03:00:09.267Z,0.90
2022-10-02T03:02:58.564Z,0.88
2022-10-02T03:05:51.021Z,0.82
2022-10-02T03:08:41.100Z,0.80
2022-10-02T03:11:50.797Z,0.90
2022-10-02T03:15:04.862Z,0.70
2022-10-02T03:18:09.612Z,0.90
2022-10-02T03:21:10.189Z,0.75
2022-10-02T03:24:07.922Z,0.80
2022-10-02T03:27:01.772Z,0.70
2022-10-02T03:29:55.811Z,1.00
2022-10-02T03:32:47.736Z,0.88
2022-10-02T03:35:36.831Z,0.70
2022-10-02T03:38:26.019Z,0.90
2022-10-02T03:41:16.223Z,0.80
2022-10-02T03:44:04.622Z,0.68
2022-10-02T03:46:53.364Z,0.82
2022-10-02T03:49:41.843Z,0.75
2022-10-02T03:52:33.909Z,0.80
2022-10-02T03:55:32.802Z,0.70
2022-10-02T03:58:23.620Z,0.73
2022-10-02T04:01:18.308Z,0.63
2022-10-02T04:04:14.287Z,0.80
2022-10-02T04:07:06.326Z,0.70
2022-10-02T04:10:04.411Z,0.70
2022-10-02T04:12:57.062Z,0.60
2022-10-02T04:15:57.939Z,0.60
2022-10-02T04:18:53.617Z,0.60
2022-10-02T04:21:47.693Z,0.50
2022-10-02T04:24:41.158Z,0.80
2022-10-02T04:27:36.711Z,0.70
2022-10-02T04:30:24.744Z,0.70
2022-10-02T04:33:18.937Z,0.85
2022-10-02T04:36:19.326Z,0.70
2022-10-02T04:39:35.425Z,0.73
2022-10-02T04:42:35.621Z,0.80
2022-10-02T04:45:43.158Z,0.52
2022-10-02T04:49:05.443Z,0.70
2022-10-02T04:52:04.853Z,0.80
2022-10-02T04:55:19.198Z,0.75
2022-10-02T04:58:54.297Z,0.70
2022-10-02T05:01:56.498Z,0.80
2022-10-02T05:05:02.395Z,0.60
2022-10-02T05:08:09.562Z,0.80
2022-10-02T05:11:13.471Z,0.70
2022-10-02T05:14:31.574Z,0.70
2022-10-02T05:17:41.270Z,0.70
2022-10-02T05:20:58.675Z,0.80
2022-10-02T05:24:00.961Z,0.60
2022-10-02T05:27:06.472Z,0.80
2022-10-02T05:30:05.903Z,0.70
2022-10-02T05:33:22.850Z,0.80
2022-10-02T05:36:42.330Z,0.80
2022-10-02T05:39:34.818Z,0.80
2022-10-02T05:42:30.758Z,0.70
2022-10-02T05:45:27.614Z,0.70
2022-10-02T05:48:19.981Z,0.90
2022-10-02T05:51:11.864Z,0.70
2022-10-02T05:54:07.071Z,1.60
2022-10-02T05:57:01.722Z,3.45
2022-10-02T06:00:02.256Z,1.02
2022-10-02T06:03:09.521Z,0.90
2022-10-02T06:06:02.798Z,0.90
2022-10-02T06:08:58.543Z,0.88
2022-10-02T06:11:52.712Z,0.80
2022-10-02T06:14:49.816Z,0.70
2022-10-02T06:17:45.287Z,0.85
2022-10-02T06:20:39.066Z,0.90
2022-10-02T06:23:32.554Z,0.80
2022-10-02T06:26:37.610Z,0.80
2022-10-02T06:29:32.554Z,0.70
2022-10-02T06:32:32.095Z,0.82
2022-10-02T06:35:31.938Z,0.70
2022-10-02T06:38:32.623Z,0.65
2022-10-02T06:41:30.103Z,0.90
2022-10-02T06:44:25.646Z,0.68
2022-10-02T06:47:25.769Z,0.75
2022-10-02T06:50:28.600Z,0.77
2022-10-02T06:53:42.278Z,0.70
2022-10-02T06:56:44.683Z,0.77
2022-10-02T06:59:49.812Z,0.90
2022-10-02T07:03:16.831Z,0.73
2022-10-02T07:06:33.467Z,0.90
2022-10-02T07:09:45.432Z,0.80
2022-10-02T07:13:02.935Z,0.75
2022-10-02T07:16:11.034Z,0.90
2022-10-02T07:19:20.128Z,0.70
2022-10-02T07:22:43.440Z,0.93
2022-10-02T07:25:51.179Z,0.90
2022-10-02T07:28:43.915Z,0.70
2022-10-02T07:31:46.254Z,0.85
2022-10-02T07:34:45.534Z,0.70
2022-10-02T07:37:44.518Z,0.68
2022-10-02T07:40:40.851Z,0.60
2022-10-02T07:43:47.189Z,0.73
2022-10-02T07:46:46.567Z,0.70
2022-10-02T07:49:49.204Z,0.80
2022-10-02T07:52:46.437Z,0.70
2022-10-02T07:55:36.742Z,0.80
2022-10-02T07:58:33.646Z,1.27
2022-10-02T08:01:26.430Z,0.80
2022-10-02T08:04:20.111Z,0.77
2022-10-02T08:07:09.886Z,0.80
2022-10-02T08:10:02.245Z,0.80
2022-10-02T08:13:00.291Z,0.82
2022-10-02T08:15:53.147Z,0.95
2022-10-02T08:18:44.262Z,0.80
2022-10-02T08:21:40.149Z,0.80
2022-10-02T08:24:34.319Z,1.20
2022-10-02T08:27:26.175Z,1.65
2022-10-02T08:30:15.994Z,2.10
2022-10-02T08:33:13.562Z,5.75
2022-10-02T08:36:25.770Z,12.00
2022-10-02T08:39:36.679Z,17.02
2022-10-02T08:43:04.205Z,10.07
2022-10-02T08:46:46.319Z,9.77
2022-10-02T08:50:07.961Z,8.88
2022-10-02T08:53:27.877Z,11.70
2022-10-02T08:56:55.124Z,10.13
2022-10-02T09:00:20.683Z,9.43
2022-10-02T09:03:52.206Z,9.25
2022-10-02T09:07:27.445Z,7.60
2022-10-02T09:10:52.911Z,7.30
2022-10-02T09:14:12.836Z,6.45
2022-10-02T09:17:17.652Z,6.32
2022-10-02T09:20:43.928Z,6.20
2022-10-02T09:24:01.281Z,4.40
2022-10-02T09:27:25.200Z,5.85
2022-10-02T09:30:24.356Z,5.40
2022-10-02T09:34:00.070Z,5.30
2022-10-02T09:37:32.472Z,4.80
2022-10-02T09:41:02.588Z,4.13
2022-10-02T09:44:16.811Z,4.05
2022-10-02T09:47:47.716Z,4.10
2022-10-02T09:51:12.621Z,4.00
2022-10-02T09:54:26.190Z,9.88
2022-10-02T09:57:45.340Z,12.35
2022-10-02T10:00:49.688Z,12.63
2022-10-02T10:04:19.128Z,11.32
2022-10-02T10:08:01.436Z,10.35
2022-10-02T10:11:36.151Z,10.48
2022-10-02T10:14:58.261Z,10.00
2022-10-02T10:18:15.408Z,9.02
2022-10-02T10:21:39.288Z,7.88
2022-10-02T10:25:00.952Z,7.40
2022-10-02T10:28:14.069Z,6.53
2022-10-02T10:31:46.738Z,5.38
2022-10-02T10:35:10.020Z,5.70
2022-10-02T10:38:34.104Z,6.15
2022-10-02T10:41:49.839Z,5.32
2022-10-02T10:45:11.560Z,4.60
2022-10-02T10:48:27.960Z,5.03
2022-10-02T10:51:30.710Z,5.47
2022-10-02T10:54:48.457Z,3.55
2022-10-02T10:58:03.345Z,3.95
2022-10-02T11:01:08.443Z,3.88
2022-10-02T11:04:26.611Z,3.60
2022-10-02T11:07:36.000Z,3.67
2022-10-02T11:10:45.456Z,4.03
2022-10-02T11:13:51.452Z,3.70
2022-10-02T11:17:10.856Z,3.90
2022-10-02T11:20:34.541Z,3.70
2022-10-02T11:23:40.608Z,2.95
2022-10-02T11:26:39.012Z,3.08
2022-10-02T11:30:04.035Z,2.35
2022-10-02T11:33:24.314Z,2.88
2022-10-02T11:36:42.847Z,2.72
2022-10-02T11:39:58.605Z,2.40
2022-10-02T11:43:18.682Z,2.63
2022-10-02T11:46:21.649Z,2.50
2022-10-02T11:49:37.669Z,2.42
2022-10-02T11:52:55.592Z,2.38
2022-10-02T11:56:01.375Z,2.35
2022-10-02T11:59:02.308Z,2.60
2022-10-02T12:01:57.744Z,2.05
2022-10-02T12:05:04.636Z,1.98
2022-10-02T12:08:03.572Z,2.13
2022-10-02T12:10:59.134Z,2.00
2022-10-02T12:14:08.461Z,2.00
2022-10-02T12:17:11.986Z,1.98
2022-10-02T12:20:25.118Z,1.92
2022-10-02T12:23:42.811Z,1.95
2022-10-02T12:27:04.015Z,1.88
2022-10-02T12:30:04.247Z,1.70
2022-10-02T12:33:15.702Z,1.90
2022-10-02T12:36:19.747Z,1.48
2022-10-02T12:39:33.092Z,2.00
2022-10-02T12:42:42.362Z,1.42
2022-10-02T12:46:10.402Z,1.25
2022-10-02T12:49:13.441Z,1.00
2022-10-02T12:52:42.239Z,0.88
2022-10-02T12:56:05.648Z,0.70
2022-10-02T12:59:04.871Z,0.75
2022-10-02T13:03:00.386Z,0.70
2022-10-02T13:06:20.976Z,0.60
2022-10-02T13:09:21.439Z,0.80
2022-10-02T13:12:37.221Z,0.82
2022-10-02T13:15:37.234Z,0.60
2022-10-02T13:18:43.691Z,0.80
2022-10-02T13:21:41.523Z,0.82
2022-10-02T13:24:52.458Z,0.98
2022-10-02T13:27:49.651Z,1.00
2022-10-02T13:30:46.263Z,0.85
2022-10-02T13:34:00.606Z,1.30
2022-10-02T13:37:01.601Z,1.50
2022-10-02T13:40:12.881Z,1.07
2022-10-02T13:43:34.924Z,1.05
2022-10-02T13:46:45.458Z,1.20
2022-10-02T13:49:46.989Z,1.02
2022-10-02T13:52:45.606Z,0.82
2022-10-02T13:55:38.393Z,0.88
2022-10-02T13:58:57.563Z,1.10
2022-10-02T14:02:00.963Z,0.93
2022-10-02T14:04:57.830Z,0.70
2022-10-02T14:08:27.924Z,0.70
2022-10-02T14:11:29.292Z,0.90
2022-10-02T14:14:31.122Z,0.82
2022-10-02T14:17:27.908Z,0.80
2022-10-02T14:20:28.312Z,0.85
2022-10-02T14:23:31.512Z,1.02
2022-10-02T14:26:30.120Z,0.80
2022-10-02T14:29:41.470Z,0.80
2022-10-02T14:32:51.273Z,0.70
2022-10-02T14:35:51.328Z,0.70
2022-10-02T14:38:52.898Z,0.80
2022-10-02T14:42:10.516Z,0.98
2022-10-02T14:45:21.374Z,0.98
2022-10-02T14:48:26.934Z,3.00
2022-10-02T14:51:27.662Z,1.90
2022-10-02T14:54:32.507Z,3.05
2022-10-02T14:57:36.513Z,1.05
2022-10-02T15:00:30.140Z,0.73
2022-10-02T15:03:39.826Z,0.98
2022-10-02T15:06:41.981Z,0.90
2022-10-02T15:09:34.496Z,0.90
2022-10-02T15:12:27.373Z,0.70
2022-10-02T15:15:19.681Z,0.80
2022-10-02T15:18:38.418Z,0.85
2022-10-02T15:21:32.773Z,0.68
2022-10-02T15:24:31.191Z,0.70
2022-10-02T15:27:24.605Z,0.68
2022-10-02T15:30:21.099Z,0.77
2022-10-02T15:33:21.404Z,0.73
2022-10-02T15:36:25.804Z,0.80
2022-10-02T15:39:35.338Z,0.70
2022-10-02T15:42:46.909Z,0.70
2022-10-02T15:45:56.140Z,0.70
2022-10-02T15:48:59.841Z,0.82
2022-10-02T15:52:03.742Z,0.90
2022-10-02T15:54:58.307Z,0.88
2022-10-02T15:58:05.567Z,0.80
2022-10-02T16:01:33.245Z,0.75
2022-10-02T16:04:30.611Z,0.70
2022-10-02T16:07:52.798Z,0.85
2022-10-02T16:10:58.948Z,0.77
2022-10-02T16:13:54.728Z,0.80
2022-10-02T16:17:21.255Z,0.70
2022-10-02T16:20:31.047Z,0.90
2022-10-02T16:23:47.144Z,0.70
2022-10-02T16:26:59.235Z,0.70
2022-10-02T16:30:12.015Z,0.93
2022-10-02T16:33:14.918Z,0.80
2022-10-02T16:36:30.166Z,0.77
2022-10-02T16:39:41.356Z,0.80
2022-10-02T16:42:42.455Z,0.70
2022-10-02T16:45:55.463Z,0.60
2022-10-02T16:48:52.765Z,0.70
2022-10-02T16:51:53.878Z,0.75
2022-10-02T16:54:48.599Z,0.70
2022-10-02T16:57:55.534Z,0.80
2022-10-02T17:00:55.811Z,0.80
2022-10-02T17:03:50.500Z,0.60
2022-10-02T17:06:45.023Z,0.65
2022-10-02T17:09:44.404Z,0.80
2022-10-02T17:12:45.012Z,0.70
2022-10-02T17:15:39.903Z,0.80
2022-10-02T17:18:35.563Z,0.68
2022-10-02T17:21:27.535Z,0.60
2022-10-02T17:24:32.871Z,0.77
2022-10-02T17:27:36.383Z,0.77
2022-10-02T17:30:28.990Z,0.70
2022-10-02T17:33:20.172Z,0.75
2022-10-02T17:36:19.619Z,0.60
2022-10-02T17:39:33.492Z,0.70
2022-10-02T17:42:34.520Z,0.70
2022-10-02T17:45:33.714Z,0.70
2022-10-02T17:48:36.312Z,0.70
2022-10-02T17:51:52.215Z,0.70
2022-10-02T17:55:21.683Z,0.60
2022-10-02T17:58:19.824Z,0.80
2022-10-02T18:01:19.348Z,0.80
2022-10-02T18:04:17.238Z,0.50
2022-10-02T18:07:31.103Z,0.70
2022-10-02T18:10:32.404Z,0.80
2022-10-02T18:13:30.905Z,0.60
2022-10-02T18:16:29.990Z,0.70
2022-10-02T18:19:31.474Z,0.80
2022-10-02T18:22:43.258Z,0.70
2022-10-02T18:25:51.228Z,0.70
2022-10-02T18:29:07.369Z,0.50
2022-10-02T18:32:11.790Z,0.68
2022-10-02T18:35:10.370Z,0.65
2022-10-02T18:38:13.827Z,0.60
2022-10-02T18:41:21.001Z,0.70
2022-10-02T18:44:24.658Z,0.60
2022-10-02T18:47:27.769Z,0.60
2022-10-02T18:50:33.816Z,0.50
2022-10-02T18:53:44.157Z,0.60
2022-10-02T18:57:05.519Z,0.70
2022-10-02T19:00:04.787Z,0.60
2022-10-02T19:03:22.027Z,0.60
2022-10-02T19:06:16.806Z,0.80
2022-10-02T19:09:19.228Z,0.80
2022-10-02T19:12:16.712Z,0.70
2022-10-02T19:15:21.119Z,0.60
2022-10-02T19:18:19.125Z,0.85
2022-10-02T19:21:10.222Z,0.68
2022-10-02T19:24:05.207Z,0.50
2022-10-02T19:26:58.696Z,0.80
2022-10-02T19:29:54.781Z,0.70
2022-10-02T19:32:44.103Z,0.60
2022-10-02T19:35:41.064Z,0.57
2022-10-02T19:38:33.841Z,0.60
2022-10-02T19:41:23.779Z,0.60
2022-10-02T19:44:21.783Z,0.57
2022-10-02T19:47:17.435Z,0.70
2022-10-02T19:50:08.627Z,0.70
2022-10-02T19:53:02.559Z,0.60
2022-10-02T19:55:55.872Z,0.60
2022-10-02T19:58:48.874Z,0.50
2022-10-02T20:01:43.972Z,0.70
2022-10-02T20:04:33.326Z,0.60
2022-10-02T20:07:24.578Z,0.70
2022-10-02T20:10:21.495Z,0.60
2022-10-02T20:13:18.408Z,0.57
2022-10-02T20:16:31.391Z,0.68
2022-10-02T20:19:22.709Z,0.63
2022-10-02T20:22:24.384Z,0.45
2022-10-02T20:25:20.347Z,0.50
2022-10-02T20:28:19.755Z,0.60
2022-10-02T20:31:14.793Z,0.60
2022-10-02T20:34:07.449Z,0.50
2022-10-02T20:36:59.642Z,0.60
2022-10-02T20:39:55.232Z,0.60
2022-10-02T20:42:54.364Z,0.60
2022-10-02T20:45:48.484Z,0.80
2022-10-02T20:49:09.462Z,0.70
2022-10-02T20:52:40.698Z,0.60
2022-10-02T20:55:40.904Z,0.68
2022-10-02T20:59:02.272Z,0.70
2022-10-02T21:05:39.763Z,0.60
2022-10-02T21:08:48.955Z,0.50
2022-10-02T21:12:22.281Z,0.55
2022-10-02T21:16:01.458Z,0.60
2022-10-02T21:19:28.274Z,0.60
2022-10-02T21:22:51.730Z,0.65
2022-10-02T21:26:20.469Z,0.65
2022-10-02T21:29:27.245Z,0.60
2022-10-02T21:32:41.158Z,0.50
2022-10-02T21:35:39.725Z,0.80
2022-10-02T21:38:47.561Z,0.60
2022-10-02T21:42:31.828Z,0.60
2022-10-02T21:45:54.694Z,0.50
2022-10-02T21:49:25.176Z,0.55
2022-10-02T21:52:48.519Z,0.70
2022-10-02T21:56:09.715Z,0.50
2022-10-02T21:59:23.179Z,0.60
2022-10-02T22:02:49.828Z,0.70
2022-10-02T22:06:05.394Z,0.60
2022-10-02T22:09:17.358Z,0.52
2022-10-02T22:12:18.581Z,0.80
2022-10-02T22:15:17.119Z,0.68
2022-10-02T22:18:18.244Z,0.50
2022-10-02T22:21:24.878Z,0.60
2022-10-02T22:24:27.574Z,0.60
2022-10-02T22:27:42.993Z,0.60
2022-10-02T22:30:35.728Z,0.60
2022-10-02T22:33:35.328Z,0.60
2022-10-02T22:36:46.910Z,0.55
2022-10-02T22:42:33.432Z,0.60
2022-10-02T22:45:28.658Z,0.50
2022-10-02T22:48:24.315Z,0.60
2022-10-02T22:51:21.900Z,0.60
2022-10-02T22:54:20.962Z,0.50
2022-10-02T22:57:24.280Z,0.60
2022-10-02T23:00:20.299Z,0.57
2022-10-02T23:03:16.353Z,0.60
2022-10-02T23:06:11.650Z,0.50
2022-10-02T23:09:09.401Z,0.50
2022-10-02T23:12:11.533Z,0.70
2022-10-02T23:15:07.171Z,0.55
2022-10-02T23:17:59.535Z,0.60
2022-10-02T23:20:55.290Z,0.60
2022-10-02T23:23:51.691Z,0.60
2022-10-02T23:26:48.392Z,0.60
2022-10-02T23:29:47.266Z,0.60
2022-10-02T23:32:41.439Z,0.60
2022-10-02T23:35:35.084Z,0.50
2022-10-02T23:38:29.654Z,0.60
2022-10-02T23:41:40.884Z,0.50
2022-10-02T23:47:30.582Z,0.50
2022-10-02T23:50:24.742Z,0.60
2022-10-02T23:53:37.293Z,0.68
2022-10-02T23:56:43.407Z,0.60
2022-10-02T23:59:55.475Z,0.50
